sensor_id;sensor_type;location;lat;lon;timestamp;pressure;altitude;pressure_sealevel;temperature;humidity
20145;BME280;10233;50.814;6.590;2023-05-19T00:00:19;101111.75;;;11.41;100.00
20145;BME280;10233;50.814;6.590;2023-05-19T00:01:20;101107.63;;;11.38;100.00
20145;BME280;10233;50.814;6.590;2023-05-19T00:02:21;101115.78;;;11.37;100.00
20145;BME280;10233;50.814;6.590;2023-05-19T00:03:22;101113.31;;;11.35;100.00
20145;BME280;10233;50.814;6.590;2023-05-19T00:04:23;101115.34;;;11.33;100.00
20145;BME280;10233;50.814;6.590;2023-05-19T00:05:24;101115.34;;;11.33;100.00
20145;BME280;10233;50.814;6.590;2023-05-19T00:06:26;101120.00;;;11.31;100.00
20145;BME280;10233;50.814;6.590;2023-05-19T00:07:30;101122.94;;;11.36;100.00
20145;BME280;10233;50.814;6.590;2023-05-19T00:08:32;101126.34;;;11.30;100.00
20145;BME280;10233;50.814;6.590;2023-05-19T00:09:33;101117.91;;;11.27;100.00
20145;BME280;10233;50.814;6.590;2023-05-19T00:10:34;101117.28;;;11.25;100.00
20145;BME280;10233;50.814;6.590;2023-05-19T00:11:35;101120.13;;;11.23;100.00
20145;BME280;10233;50.814;6.590;2023-05-19T00:12:37;101123.81;;;11.22;100.00
20145;BME280;10233;50.814;6.590;2023-05-19T00:13:37;101120.13;;;11.23;100.00
20145;BME280;10233;50.814;6.590;2023-05-19T00:14:38;101120.88;;;11.17;100.00
20145;BME280;10233;50.814;6.590;2023-05-19T00:15:39;101115.72;;;11.16;100.00
20145;BME280;10233;50.814;6.590;2023-05-19T00:16:40;101119.41;;;11.15;100.00
20145;BME280;10233;50.814;6.590;2023-05-19T00:17:41;101121.84;;;11.16;100.00
20145;BME280;10233;50.814;6.590;2023-05-19T00:18:41;101118.84;;;11.19;100.00
20145;BME280;10233;50.814;6.590;2023-05-19T00:19:42;101122.13;;;11.21;100.00
20145;BME280;10233;50.814;6.590;2023-05-19T00:20:44;101123.69;;;11.16;100.00
20145;BME280;10233;50.814;6.590;2023-05-19T00:21:44;101121.22;;;11.14;100.00
20145;BME280;10233;50.814;6.590;2023-05-19T00:22:45;101116.75;;;11.15;100.00
20145;BME280;10233;50.814;6.590;2023-05-19T00:23:45;101117.09;;;11.12;100.00
20145;BME280;10233;50.814;6.590;2023-05-19T00:24:46;101121.56;;;11.11;100.00
20145;BME280;10233;50.814;6.590;2023-05-19T00:25:46;101121.56;;;11.11;100.00
20145;BME280;10233;50.814;6.590;2023-05-19T00:26:47;101117.44;;;11.09;100.00
20145;BME280;10233;50.814;6.590;2023-05-19T00:27:47;101116.19;;;11.05;100.00
20145;BME280;10233;50.814;6.590;2023-05-19T00:28:48;101115.81;;;11.08;100.00
20145;BME280;10233;50.814;6.590;2023-05-19T00:29:49;101117.00;;;11.05;100.00
20145;BME280;10233;50.814;6.590;2023-05-19T00:30:50;101110.19;;;11.03;100.00
20145;BME280;10233;50.814;6.590;2023-05-19T00:31:51;101116.81;;;11.07;100.00
20145;BME280;10233;50.814;6.590;2023-05-19T00:32:51;101112.03;;;11.02;100.00
20145;BME280;10233;50.814;6.590;2023-05-19T00:33:52;101116.53;;;11.02;100.00
20145;BME280;10233;50.814;6.590;2023-05-19T00:34:52;101117.72;;;10.99;100.00
20145;BME280;10233;50.814;6.590;2023-05-19T00:35:52;101118.09;;;10.96;100.00
20145;BME280;10233;50.814;6.590;2023-05-19T00:36:53;101112.75;;;10.96;100.00
20145;BME280;10233;50.814;6.590;2023-05-19T00:37:54;101118.91;;;10.97;100.00
20145;BME280;10233;50.814;6.590;2023-05-19T00:38:55;101116.91;;;10.99;100.00
20145;BME280;10233;50.814;6.590;2023-05-19T00:39:55;101118.75;;;10.98;100.00
20145;BME280;10233;50.814;6.590;2023-05-19T00:40:57;101118.09;;;10.96;100.00
20145;BME280;10233;50.814;6.590;2023-05-19T00:41:57;101120.13;;;10.94;100.00
20145;BME280;10233;50.814;6.590;2023-05-19T00:42:58;101119.44;;;10.92;100.00
20145;BME280;10233;50.814;6.590;2023-05-19T00:43:58;101116.16;;;10.90;100.00
20145;BME280;10233;50.814;6.590;2023-05-19T00:44:59;101117.63;;;10.93;100.00
20145;BME280;10233;50.814;6.590;2023-05-19T00:45:59;101122.94;;;10.93;100.00
20145;BME280;10233;50.814;6.590;2023-05-19T00:47:00;101118.81;;;10.90;100.00
20145;BME280;10233;50.814;6.590;2023-05-19T00:48:00;101114.34;;;10.91;100.00
20145;BME280;10233;50.814;6.590;2023-05-19T00:49:01;101116.16;;;10.90;100.00
20145;BME280;10233;50.814;6.590;2023-05-19T00:50:01;101120.47;;;10.91;100.00
20145;BME280;10233;50.814;6.590;2023-05-19T00:51:02;101116.50;;;10.87;100.00
20145;BME280;10233;50.814;6.590;2023-05-19T00:52:05;101111.84;;;10.89;100.00
20145;BME280;10233;50.814;6.590;2023-05-19T00:53:06;101115.53;;;10.88;100.00
20145;BME280;10233;50.814;6.590;2023-05-19T00:54:07;101123.31;;;10.90;100.00
20145;BME280;10233;50.814;6.590;2023-05-19T00:55:08;101112.59;;;10.83;100.00
20145;BME280;10233;50.814;6.590;2023-05-19T00:56:09;101110.56;;;10.85;100.00
20145;BME280;10233;50.814;6.590;2023-05-19T00:57:10;101108.06;;;10.84;100.00
20145;BME280;10233;50.814;6.590;2023-05-19T00:58:11;101117.06;;;10.83;100.00
20145;BME280;10233;50.814;6.590;2023-05-19T00:59:13;101111.75;;;10.83;100.00
20145;BME280;10233;50.814;6.590;2023-05-19T01:00:14;101110.91;;;10.82;100.00
20145;BME280;10233;50.814;6.590;2023-05-19T01:01:15;101109.66;;;10.78;100.00
20145;BME280;10233;50.814;6.590;2023-05-19T01:02:17;101109.09;;;10.83;100.00
20145;BME280;10233;50.814;6.590;2023-05-19T01:03:18;101113.84;;;10.87;100.00
20145;BME280;10233;50.814;6.590;2023-05-19T01:04:19;101109.00;;;10.91;100.00
20145;BME280;10233;50.814;6.590;2023-05-19T01:05:21;101112.13;;;10.94;100.00
20145;BME280;10233;50.814;6.590;2023-05-19T01:06:21;101108.19;;;10.90;100.00
20145;BME280;10233;50.814;6.590;2023-05-19T01:07:22;101116.91;;;10.84;100.00
20145;BME280;10233;50.814;6.590;2023-05-19T01:08:23;101113.41;;;10.84;100.00
20145;BME280;10233;50.814;6.590;2023-05-19T01:09:23;101114.41;;;10.83;100.00
20145;BME280;10233;50.814;6.590;2023-05-19T01:10:23;101110.09;;;10.82;100.00
20145;BME280;10233;50.814;6.590;2023-05-19T01:11:24;101105.81;;;10.81;100.00
20145;BME280;10233;50.814;6.590;2023-05-19T01:12:25;101113.31;;;10.92;100.00
20145;BME280;10233;50.814;6.590;2023-05-19T01:13:26;101113.22;;;10.85;100.00
20145;BME280;10233;50.814;6.590;2023-05-19T01:14:28;101103.13;;;10.81;100.00
20145;BME280;10233;50.814;6.590;2023-05-19T01:15:32;101106.31;;;10.76;100.00
20145;BME280;10233;50.814;6.590;2023-05-19T01:16:48;101107.69;;;10.72;100.00
20145;BME280;10233;50.814;6.590;2023-05-19T01:17:57;101101.75;;;10.70;100.00
20145;BME280;10233;50.814;6.590;2023-05-19T01:19:20;101100.91;;;10.70;100.00
20145;BME280;10233;50.814;6.590;2023-05-19T01:25:24;101097.72;;;10.74;100.00
20145;BME280;10233;50.814;6.590;2023-05-19T01:26:59;101092.00;;;10.77;100.00
20145;BME280;10233;50.814;6.590;2023-05-19T01:29:41;101095.69;;;10.76;100.00
20145;BME280;10233;50.814;6.590;2023-05-19T01:30:43;101096.88;;;10.74;100.00
20145;BME280;10233;50.814;6.590;2023-05-19T01:31:45;101096.34;;;10.78;100.00
20145;BME280;10233;50.814;6.590;2023-05-19T01:32:47;101090.38;;;10.76;100.00
20145;BME280;10233;50.814;6.590;2023-05-19T01:33:48;101084.13;;;10.69;100.00
20145;BME280;10233;50.814;6.590;2023-05-19T01:34:51;101089.47;;;10.69;100.00
20145;BME280;10233;50.814;6.590;2023-05-19T01:35:55;101092.75;;;10.71;100.00
20145;BME280;10233;50.814;6.590;2023-05-19T01:36:59;101086.06;;;10.75;100.00
20145;BME280;10233;50.814;6.590;2023-05-19T01:38:01;101084.94;;;10.70;100.00
20145;BME280;10233;50.814;6.590;2023-05-19T01:39:02;101089.91;;;10.73;100.00
20145;BME280;10233;50.814;6.590;2023-05-19T01:40:05;101087.81;;;10.68;100.00
20145;BME280;10233;50.814;6.590;2023-05-19T01:41:07;101084.31;;;10.68;100.00
20145;BME280;10233;50.814;6.590;2023-05-19T01:42:09;101081.19;;;10.64;100.00
20145;BME280;10233;50.814;6.590;2023-05-19T01:43:18;101081.19;;;10.64;100.00
20145;BME280;10233;50.814;6.590;2023-05-19T01:44:19;101089.16;;;10.64;100.00
20145;BME280;10233;50.814;6.590;2023-05-19T01:45:22;101083.09;;;10.56;100.00
20145;BME280;10233;50.814;6.590;2023-05-19T01:46:23;101078.44;;;10.58;100.00
20145;BME280;10233;50.814;6.590;2023-05-19T01:47:24;101081.91;;;10.58;100.00
20145;BME280;10233;50.814;6.590;2023-05-19T01:48:26;101085.38;;;10.59;100.00
20145;BME280;10233;50.814;6.590;2023-05-19T01:49:26;101086.03;;;10.61;100.00
20145;BME280;10233;50.814;6.590;2023-05-19T01:50:28;101081.19;;;10.64;100.00
20145;BME280;10233;50.814;6.590;2023-05-19T01:51:28;101081.91;;;10.58;100.00
20145;BME280;10233;50.814;6.590;2023-05-19T01:52:30;101083.47;;;10.53;100.00
20145;BME280;10233;50.814;6.590;2023-05-19T01:53:31;101082.63;;;10.52;100.00
20145;BME280;10233;50.814;6.590;2023-05-19T01:54:34;101086.66;;;10.48;100.00
20145;BME280;10233;50.814;6.590;2023-05-19T01:55:40;101089.59;;;10.53;100.00
20145;BME280;10233;50.814;6.590;2023-05-19T01:57:13;101089.13;;;10.50;100.00
20145;BME280;10233;50.814;6.590;2023-05-19T01:58:23;101088.78;;;10.53;100.00
20145;BME280;10233;50.814;6.590;2023-05-19T01:59:41;101089.78;;;10.52;100.00
20145;BME280;10233;50.814;6.590;2023-05-19T02:00:53;101092.34;;;10.45;100.00
20145;BME280;10233;50.814;6.590;2023-05-19T02:01:59;101091.03;;;10.41;100.00
20145;BME280;10233;50.814;6.590;2023-05-19T02:03:11;101089.84;;;10.44;100.00
20145;BME280;10233;50.814;6.590;2023-05-19T02:04:49;101092.16;;;10.47;100.00
20145;BME280;10233;50.814;6.590;2023-05-19T02:06:01;101087.47;;;10.49;100.00
20145;BME280;10233;50.814;6.590;2023-05-19T02:07:08;101088.31;;;10.49;100.00
20145;BME280;10233;50.814;6.590;2023-05-19T02:08:41;101095.00;;;10.45;100.00
20145;BME280;10233;50.814;6.590;2023-05-19T02:10:04;101092.97;;;10.47;100.00
20145;BME280;10233;50.814;6.590;2023-05-19T02:11:14;101093.06;;;10.39;100.00
20145;BME280;10233;50.814;6.590;2023-05-19T02:12:24;101095.44;;;10.34;100.00
20145;BME280;10233;50.814;6.590;2023-05-19T02:13:30;101097.44;;;10.32;100.00
20145;BME280;10233;50.814;6.590;2023-05-19T02:14:40;101103.59;;;10.33;100.00
20145;BME280;10233;50.814;6.590;2023-05-19T02:15:45;101098.91;;;10.35;100.00
20145;BME280;10233;50.814;6.590;2023-05-19T02:16:47;101101.81;;;10.25;100.00
20145;BME280;10233;50.814;6.590;2023-05-19T02:17:49;101102.34;;;10.21;100.00
20145;BME280;10233;50.814;6.590;2023-05-19T02:18:51;101100.69;;;10.20;100.00
20145;BME280;10233;50.814;6.590;2023-05-19T02:19:53;101101.16;;;10.23;100.00
20145;BME280;10233;50.814;6.590;2023-05-19T02:20:53;101101.31;;;10.22;100.00
20145;BME280;10233;50.814;6.590;2023-05-19T02:21:54;101099.69;;;10.21;100.00
20145;BME280;10233;50.814;6.590;2023-05-19T02:22:55;101094.75;;;10.18;100.00
20145;BME280;10233;50.814;6.590;2023-05-19T02:23:56;101095.72;;;10.17;100.00
20145;BME280;10233;50.814;6.590;2023-05-19T02:24:56;101100.41;;;10.15;100.00
20145;BME280;10233;50.814;6.590;2023-05-19T02:25:57;101097.09;;;10.13;100.00
20145;BME280;10233;50.814;6.590;2023-05-19T02:26:57;101098.28;;;10.10;100.00
20145;BME280;10233;50.814;6.590;2023-05-19T02:27:59;101095.78;;;10.09;100.00
20145;BME280;10233;50.814;6.590;2023-05-19T02:29:03;101097.41;;;10.18;100.00
20145;BME280;10233;50.814;6.590;2023-05-19T02:30:04;101100.75;;;10.12;100.00
20145;BME280;10233;50.814;6.590;2023-05-19T02:31:04;101093.59;;;10.12;100.00
20145;BME280;10233;50.814;6.590;2023-05-19T02:32:08;101090.59;;;10.15;100.00
20145;BME280;10233;50.814;6.590;2023-05-19T02:33:08;101097.44;;;10.10;100.00
20145;BME280;10233;50.814;6.590;2023-05-19T02:34:10;101090.31;;;10.10;100.00
20145;BME280;10233;50.814;6.590;2023-05-19T02:35:12;101092.13;;;10.10;100.00
20145;BME280;10233;50.814;6.590;2023-05-19T02:36:13;101089.31;;;10.11;100.00
20145;BME280;10233;50.814;6.590;2023-05-19T02:37:14;101092.41;;;10.15;100.00
20145;BME280;10233;50.814;6.590;2023-05-19T02:38:15;101086.28;;;10.14;100.00
20145;BME280;10233;50.814;6.590;2023-05-19T02:39:15;101085.97;;;10.09;100.00
20145;BME280;10233;50.814;6.590;2023-05-19T02:40:16;101089.31;;;10.11;100.00
20145;BME280;10233;50.814;6.590;2023-05-19T02:41:17;101074.22;;;10.04;100.00
20145;BME280;10233;50.814;6.590;2023-05-19T02:42:18;101085.34;;;9.99;100.00
20145;BME280;10233;50.814;6.590;2023-05-19T02:43:18;101080.41;;;9.96;100.00
20145;BME280;10233;50.814;6.590;2023-05-19T02:44:19;101074.16;;;9.89;100.00
20145;BME280;10233;50.814;6.590;2023-05-19T02:45:19;101088.22;;;9.98;100.00
20145;BME280;10233;50.814;6.590;2023-05-19T02:46:20;101074.97;;;9.90;100.00
20145;BME280;10233;50.814;6.590;2023-05-19T02:47:20;101081.81;;;9.84;100.00
20145;BME280;10233;50.814;6.590;2023-05-19T02:48:20;101076.19;;;9.79;100.00
20145;BME280;10233;50.814;6.590;2023-05-19T02:49:21;101082.47;;;9.86;100.00
20145;BME280;10233;50.814;6.590;2023-05-19T02:50:21;101076.66;;;9.83;100.00
20145;BME280;10233;50.814;6.590;2023-05-19T02:51:22;101072.03;;;9.85;100.00
20145;BME280;10233;50.814;6.590;2023-05-19T02:52:22;101073.34;;;9.89;100.00
20145;BME280;10233;50.814;6.590;2023-05-19T02:53:23;101068.63;;;9.76;100.00
20145;BME280;10233;50.814;6.590;2023-05-19T02:54:23;101077.38;;;9.77;100.00
20145;BME280;10233;50.814;6.590;2023-05-19T02:55:24;101071.94;;;9.70;100.00
20145;BME280;10233;50.814;6.590;2023-05-19T02:56:24;101071.59;;;9.73;100.00
20145;BME280;10233;50.814;6.590;2023-05-19T02:57:25;101076.28;;;9.71;100.00
20145;BME280;10233;50.814;6.590;2023-05-19T02:58:26;101073.41;;;9.73;100.00
20145;BME280;10233;50.814;6.590;2023-05-19T02:59:26;101070.75;;;9.73;100.00
20145;BME280;10233;50.814;6.590;2023-05-19T03:00:27;101066.13;;;9.75;100.00
20145;BME280;10233;50.814;6.590;2023-05-19T03:01:28;101064.47;;;9.74;100.00
20145;BME280;10233;50.814;6.590;2023-05-19T03:02:28;101065.13;;;9.76;100.00
20145;BME280;10233;50.814;6.590;2023-05-19T03:03:29;101068.94;;;9.73;100.00
20145;BME280;10233;50.814;6.590;2023-05-19T03:04:29;101068.00;;;9.66;100.00
20145;BME280;10233;50.814;6.590;2023-05-19T03:05:30;101069.84;;;9.66;100.00
20145;BME280;10233;50.814;6.590;2023-05-19T03:06:30;101070.47;;;9.68;100.00
20145;BME280;10233;50.814;6.590;2023-05-19T03:07:32;101070.47;;;9.68;100.00
20145;BME280;10233;50.814;6.590;2023-05-19T03:08:34;101072.66;;;9.64;100.00
20145;BME280;10233;50.814;6.590;2023-05-19T03:09:38;101074.66;;;9.62;100.00
20145;BME280;10233;50.814;6.590;2023-05-19T03:10:39;101080.16;;;9.61;100.00
20145;BME280;10233;50.814;6.590;2023-05-19T03:11:39;101079.00;;;9.55;100.00
20145;BME280;10233;50.814;6.590;2023-05-19T03:12:40;101076.25;;;9.49;100.00
20145;BME280;10233;50.814;6.590;2023-05-19T03:13:41;101081.75;;;9.39;100.00
20145;BME280;10233;50.814;6.590;2023-05-19T03:14:41;101081.41;;;9.42;100.00
20145;BME280;10233;50.814;6.590;2023-05-19T03:15:42;101076.13;;;9.42;100.00
20145;BME280;10233;50.814;6.590;2023-05-19T03:16:44;101082.09;;;9.36;100.00
20145;BME280;10233;50.814;6.590;2023-05-19T03:17:44;101078.09;;;9.40;100.00
20145;BME280;10233;50.814;6.590;2023-05-19T03:18:45;101084.25;;;9.41;100.00
20145;BME280;10233;50.814;6.590;2023-05-19T03:19:45;101087.22;;;9.38;100.00
20145;BME280;10233;50.814;6.590;2023-05-19T03:20:46;101090.72;;;9.38;100.00
20145;BME280;10233;50.814;6.590;2023-05-19T03:21:46;101088.38;;;9.43;100.00
20145;BME280;10233;50.814;6.590;2023-05-19T03:22:48;101088.72;;;9.40;100.00
20145;BME280;10233;50.814;6.590;2023-05-19T03:23:48;101086.72;;;9.42;100.00
20145;BME280;10233;50.814;6.590;2023-05-19T03:24:48;101085.03;;;9.41;100.00
20145;BME280;10233;50.814;6.590;2023-05-19T03:25:51;101084.75;;;9.36;100.00
20145;BME280;10233;50.814;6.590;2023-05-19T03:26:53;101086.91;;;9.33;100.00
20145;BME280;10233;50.814;6.590;2023-05-19T03:27:54;101084.44;;;9.31;100.00
20145;BME280;10233;50.814;6.590;2023-05-19T03:28:54;101088.25;;;9.29;100.00
20145;BME280;10233;50.814;6.590;2023-05-19T03:29:55;101088.75;;;9.32;100.00
20145;BME280;10233;50.814;6.590;2023-05-19T03:30:57;101086.44;;;9.29;100.00
20145;BME280;10233;50.814;6.590;2023-05-19T03:32:02;101082.16;;;9.28;100.00
20145;BME280;10233;50.814;6.590;2023-05-19T03:33:02;101083.97;;;9.28;100.00
20145;BME280;10233;50.814;6.590;2023-05-19T03:34:04;101083.16;;;9.27;100.00
20145;BME280;10233;50.814;6.590;2023-05-19T03:35:05;101084.44;;;9.31;100.00
20145;BME280;10233;50.814;6.590;2023-05-19T03:36:06;101084.31;;;9.25;100.00
20145;BME280;10233;50.814;6.590;2023-05-19T03:37:10;101085.13;;;9.25;100.00
20145;BME280;10233;50.814;6.590;2023-05-19T03:38:13;101085.13;;;9.25;100.00
20145;BME280;10233;50.814;6.590;2023-05-19T03:39:20;101080.53;;;9.19;100.00
20145;BME280;10233;50.814;6.590;2023-05-19T03:40:22;101077.22;;;9.17;100.00
20145;BME280;10233;50.814;6.590;2023-05-19T03:41:24;101079.03;;;9.17;100.00
20145;BME280;10233;50.814;6.590;2023-05-19T03:42:25;101077.38;;;9.16;100.00
20145;BME280;10233;50.814;6.590;2023-05-19T03:43:26;101081.53;;;9.10;100.00
20145;BME280;10233;50.814;6.590;2023-05-19T03:44:31;101074.91;;;9.06;100.00
20145;BME280;10233;50.814;6.590;2023-05-19T03:45:33;101077.94;;;8.95;100.00
20145;BME280;10233;50.814;6.590;2023-05-19T03:46:43;101077.94;;;8.95;100.00
20145;BME280;10233;50.814;6.590;2023-05-19T03:47:50;101078.09;;;9.02;100.00
20145;BME280;10233;50.814;6.590;2023-05-19T03:49:10;101080.59;;;9.03;100.00
20145;BME280;10233;50.814;6.590;2023-05-19T03:50:33;101073.16;;;8.91;100.00
20145;BME280;10233;50.814;6.590;2023-05-19T03:51:45;101081.78;;;8.85;100.00
20145;BME280;10233;50.814;6.590;2023-05-19T03:52:57;101082.78;;;8.84;100.00
20145;BME280;10233;50.814;6.590;2023-05-19T03:54:06;101082.31;;;8.80;100.00
20145;BME280;10233;50.814;6.590;2023-05-19T03:55:08;101079.00;;;8.78;100.00
20145;BME280;10233;50.814;6.590;2023-05-19T03:56:08;101088.94;;;8.76;100.00
20145;BME280;10233;50.814;6.590;2023-05-19T03:57:13;101078.81;;;8.80;100.00
20145;BME280;10233;50.814;6.590;2023-05-19T03:58:14;101080.50;;;8.73;100.00
20145;BME280;10233;50.814;6.590;2023-05-19T03:59:15;101082.16;;;8.66;100.00
20145;BME280;10233;50.814;6.590;2023-05-19T04:00:15;101074.19;;;8.66;100.00
20145;BME280;10233;50.814;6.590;2023-05-19T04:01:16;101081.03;;;8.68;100.00
20145;BME280;10233;50.814;6.590;2023-05-19T04:02:17;101080.81;;;8.70;100.00
20145;BME280;10233;50.814;6.590;2023-05-19T04:03:17;101082.50;;;8.71;100.00
20145;BME280;10233;50.814;6.590;2023-05-19T04:04:17;101084.63;;;8.75;100.00
20145;BME280;10233;50.814;6.590;2023-05-19T04:05:19;101085.97;;;8.71;100.00
20145;BME280;10233;50.814;6.590;2023-05-19T04:06:19;101087.28;;;8.75;100.00
20145;BME280;10233;50.814;6.590;2023-05-19T04:07:20;101077.16;;;8.79;100.00
20145;BME280;10233;50.814;6.590;2023-05-19T04:08:20;101087.28;;;8.75;100.00
20145;BME280;10233;50.814;6.590;2023-05-19T04:09:21;101081.66;;;8.78;100.00
20145;BME280;10233;50.814;6.590;2023-05-19T04:10:23;101086.13;;;8.78;100.00
20145;BME280;10233;50.814;6.590;2023-05-19T04:11:23;101082.81;;;8.76;100.00
20145;BME280;10233;50.814;6.590;2023-05-19T04:12:25;101080.97;;;8.76;100.00
20145;BME280;10233;50.814;6.590;2023-05-19T04:13:26;101075.84;;;8.83;100.00
20145;BME280;10233;50.814;6.590;2023-05-19T04:14:27;101082.16;;;8.82;100.00
20145;BME280;10233;50.814;6.590;2023-05-19T04:15:28;101074.16;;;8.90;100.00
20145;BME280;10233;50.814;6.590;2023-05-19T04:16:28;101079.09;;;9.01;100.00
20145;BME280;10233;50.814;6.590;2023-05-19T04:17:29;101078.47;;;8.91;100.00
20145;BME280;10233;50.814;6.590;2023-05-19T04:18:29;101081.09;;;8.99;100.00
20145;BME280;10233;50.814;6.590;2023-05-19T04:19:30;101080.06;;;9.00;100.00
20145;BME280;10233;50.814;6.590;2023-05-19T04:20:31;101093.16;;;9.01;100.00
20145;BME280;10233;50.814;6.590;2023-05-19T04:21:32;101087.06;;;8.93;100.00
20145;BME280;10233;50.814;6.590;2023-05-19T04:22:33;101090.06;;;8.90;100.00
20145;BME280;10233;50.814;6.590;2023-05-19T04:23:33;101093.03;;;8.95;100.00
20145;BME280;10233;50.814;6.590;2023-05-19T04:24:34;101088.72;;;9.02;100.00
20145;BME280;10233;50.814;6.590;2023-05-19T04:25:34;101091.16;;;9.11;100.00
20145;BME280;10233;50.814;6.590;2023-05-19T04:26:35;101093.31;;;9.08;100.00
20145;BME280;10233;50.814;6.590;2023-05-19T04:27:37;101095.13;;;9.15;100.00
20145;BME280;10233;50.814;6.590;2023-05-19T04:28:39;101093.00;;;9.11;100.00
20145;BME280;10233;50.814;6.590;2023-05-19T04:29:41;101091.84;;;9.05;100.00
20145;BME280;10233;50.814;6.590;2023-05-19T04:30:42;101094.00;;;9.10;100.00
20145;BME280;10233;50.814;6.590;2023-05-19T04:31:45;101091.47;;;9.16;100.00
20145;BME280;10233;50.814;6.590;2023-05-19T04:32:47;101095.78;;;9.17;100.00
20145;BME280;10233;50.814;6.590;2023-05-19T04:33:49;101087.31;;;9.14;100.00
20145;BME280;10233;50.814;6.590;2023-05-19T04:34:55;101094.81;;;9.10;100.00
20145;BME280;10233;50.814;6.590;2023-05-19T04:35:59;101097.81;;;9.07;100.00
20145;BME280;10233;50.814;6.590;2023-05-19T04:37:06;101094.81;;;9.02;100.00
20145;BME280;10233;50.814;6.590;2023-05-19T04:38:07;101100.66;;;8.98;100.00
20145;BME280;10233;50.814;6.590;2023-05-19T04:39:09;101092.50;;;9.07;100.00
20145;BME280;10233;50.814;6.590;2023-05-19T04:40:13;101102.63;;;9.04;100.00
20145;BME280;10233;50.814;6.590;2023-05-19T04:41:14;101099.66;;;8.99;100.00
20145;BME280;10233;50.814;6.590;2023-05-19T04:42:16;101101.81;;;9.03;100.00
20145;BME280;10233;50.814;6.590;2023-05-19T04:43:21;101091.69;;;9.07;100.00
20145;BME280;10233;50.814;6.590;2023-05-19T04:44:23;101093.31;;;9.08;100.00
20145;BME280;10233;50.814;6.590;2023-05-19T04:45:25;101086.38;;;9.07;100.00
20145;BME280;10233;50.814;6.590;2023-05-19T04:46:28;101090.97;;;9.13;100.00
20145;BME280;10233;50.814;6.590;2023-05-19T04:47:29;101093.31;;;9.16;100.00
20145;BME280;10233;50.814;6.590;2023-05-19T04:48:30;101090.28;;;9.19;100.00
20145;BME280;10233;50.814;6.590;2023-05-19T04:49:32;101093.25;;;9.24;100.00
20145;BME280;10233;50.814;6.590;2023-05-19T04:50:33;101090.09;;;9.28;100.00
20145;BME280;10233;50.814;6.590;2023-05-19T04:51:34;101092.38;;;9.31;100.00
20145;BME280;10233;50.814;6.590;2023-05-19T04:52:35;101091.53;;;9.39;100.00
20145;BME280;10233;50.814;6.590;2023-05-19T04:53:40;101094.63;;;9.50;100.00
20145;BME280;10233;50.814;6.590;2023-05-19T04:54:42;101097.94;;;9.52;100.00
20145;BME280;10233;50.814;6.590;2023-05-19T04:55:46;101099.25;;;9.56;100.00
20145;BME280;10233;50.814;6.590;2023-05-19T04:56:47;101095.25;;;9.60;100.00
20145;BME280;10233;50.814;6.590;2023-05-19T04:57:48;101086.91;;;9.71;100.00
20145;BME280;10233;50.814;6.590;2023-05-19T04:58:48;101106.28;;;9.72;100.00
20145;BME280;10233;50.814;6.590;2023-05-19T04:59:49;101087.19;;;9.76;100.00
20145;BME280;10233;50.814;6.590;2023-05-19T05:00:50;101091.63;;;9.84;100.00
20145;BME280;10233;50.814;6.590;2023-05-19T05:01:51;101091.75;;;9.90;100.00
20145;BME280;10233;50.814;6.590;2023-05-19T05:02:52;101089.75;;;9.92;100.00
20145;BME280;10233;50.814;6.590;2023-05-19T05:03:54;101098.84;;;9.98;100.00
20145;BME280;10233;50.814;6.590;2023-05-19T05:04:57;101098.19;;;9.96;100.00
20145;BME280;10233;50.814;6.590;2023-05-19T05:05:58;101092.22;;;9.94;100.00
20145;BME280;10233;50.814;6.590;2023-05-19T05:06:59;101090.03;;;9.97;100.00
20145;BME280;10233;50.814;6.590;2023-05-19T05:07:59;101094.78;;;10.10;100.00
20145;BME280;10233;50.814;6.590;2023-05-19T05:09:03;101096.25;;;10.12;100.00
20145;BME280;10233;50.814;6.590;2023-05-19T05:10:05;101090.53;;;10.23;100.00
20145;BME280;10233;50.814;6.590;2023-05-19T05:11:06;101091.53;;;10.22;100.00
20145;BME280;10233;50.814;6.590;2023-05-19T05:12:08;101087.88;;;10.23;100.00
20145;BME280;10233;50.814;6.590;2023-05-19T05:13:11;101088.81;;;10.30;100.00
20145;BME280;10233;50.814;6.590;2023-05-19T05:14:12;101090.94;;;10.35;100.00
20145;BME280;10233;50.814;6.590;2023-05-19T05:15:13;101090.59;;;10.38;100.00
20145;BME280;10233;50.814;6.590;2023-05-19T05:16:14;101090.41;;;10.39;100.00
20145;BME280;10233;50.814;6.590;2023-05-19T05:17:15;101086.66;;;10.48;100.00
20145;BME280;10233;50.814;6.590;2023-05-19T05:18:16;101094.91;;;10.53;100.00
20145;BME280;10233;50.814;6.590;2023-05-19T05:19:18;101095.41;;;10.57;100.00
20145;BME280;10233;50.814;6.590;2023-05-19T05:20:19;101091.44;;;10.67;100.00
20145;BME280;10233;50.814;6.590;2023-05-19T05:21:20;101093.75;;;10.70;100.00
20145;BME280;10233;50.814;6.590;2023-05-19T05:22:22;101093.19;;;10.75;100.00
20145;BME280;10233;50.814;6.590;2023-05-19T05:23:23;101093.88;;;10.77;100.00
20145;BME280;10233;50.814;6.590;2023-05-19T05:24:24;101098.56;;;10.89;100.00
20145;BME280;10233;50.814;6.590;2023-05-19T05:25:29;101099.47;;;10.96;100.00
20145;BME280;10233;50.814;6.590;2023-05-19T05:26:32;101099.09;;;10.99;100.00
20145;BME280;10233;50.814;6.590;2023-05-19T05:27:34;101098.53;;;11.04;100.00
20145;BME280;10233;50.814;6.590;2023-05-19T05:28:35;101097.00;;;11.09;100.00
20145;BME280;10233;50.814;6.590;2023-05-19T05:29:35;101104.13;;;11.09;100.00
20145;BME280;10233;50.814;6.590;2023-05-19T05:30:38;101097.91;;;11.16;100.00
20145;BME280;10233;50.814;6.590;2023-05-19T05:31:40;101097.09;;;11.16;100.00